aviador You're here:

SBEG Decoded Metar

MANAUS in BRAZIL
Report Time2018-07-19 05:00:00
UTC Time2018-07-19 05:40:51
Flight Rules vfr VFR
Wind350° at 02 kt
W.Decomp.*RWY 28: 0.2 kt HW 2.0 kt RCW
W.Rank350° ranks 13
Current wind is below 350° avg. (3.1)
Visibility9999 m
Phenomena:N/A
Clouds:Few 018 Hf
Expected CloudBase > 800 ft AGL from Temp-Dew spread
CeilingNone
Temp24°C (ISA +9)
Dew Point22°C (89% RH)
QNH1012 hPa
Density Alt1,434 ft
Elevation7 ft
Report Wrong Elevation
Raw Report
METAR SBEG 190500Z 35002KT 9999 FEW018 24/22 Q1012=

Extra information for SBEG:More info

Metar Taf Metar & Taf Last 4 Metars F.Rules Stats Wind Profile Meteogram Temp Stats Airport Information Weather charts Add Link Nearby VenuesMetar ALERT Operation Metar Decoded Social comments